sensor_id;sensor_type;location;lat;lon;timestamp;P1;durP1;ratioP1;P2;durP2;ratioP2
19879;SDS011;10102;50.828;4.416;2023-02-04T00:01:30;23.60;;;14.20;;
19879;SDS011;10102;50.828;4.416;2023-02-04T00:03:56;28.27;;;13.43;;
19879;SDS011;10102;50.828;4.416;2023-02-04T00:06:22;27.15;;;13.80;;
19879;SDS011;10102;50.828;4.416;2023-02-04T00:08:47;23.52;;;13.93;;
19879;SDS011;10102;50.828;4.416;2023-02-04T00:11:14;23.45;;;12.68;;
19879;SDS011;10102;50.828;4.416;2023-02-04T00:13:39;27.00;;;14.07;;
19879;SDS011;10102;50.828;4.416;2023-02-04T00:16:06;24.23;;;13.40;;
19879;SDS011;10102;50.828;4.416;2023-02-04T00:18:32;21.17;;;12.63;;
19879;SDS011;10102;50.828;4.416;2023-02-04T00:20:59;25.45;;;12.75;;
19879;SDS011;10102;50.828;4.416;2023-02-04T00:23:24;25.75;;;13.13;;
19879;SDS011;10102;50.828;4.416;2023-02-04T00:25:50;26.30;;;12.38;;
19879;SDS011;10102;50.828;4.416;2023-02-04T00:28:16;19.95;;;12.40;;
19879;SDS011;10102;50.828;4.416;2023-02-04T00:30:43;20.40;;;12.88;;
19879;SDS011;10102;50.828;4.416;2023-02-04T00:33:09;22.25;;;11.70;;
19879;SDS011;10102;50.828;4.416;2023-02-04T00:35:35;23.33;;;12.80;;
19879;SDS011;10102;50.828;4.416;2023-02-04T00:38:03;20.73;;;11.77;;
19879;SDS011;10102;50.828;4.416;2023-02-04T00:40:30;21.15;;;11.98;;
19879;SDS011;10102;50.828;4.416;2023-02-04T00:42:55;20.13;;;11.55;;
19879;SDS011;10102;50.828;4.416;2023-02-04T00:45:21;27.83;;;12.13;;
19879;SDS011;10102;50.828;4.416;2023-02-04T00:47:47;21.08;;;11.38;;
19879;SDS011;10102;50.828;4.416;2023-02-04T00:50:12;21.45;;;11.35;;
19879;SDS011;10102;50.828;4.416;2023-02-04T00:52:38;20.17;;;12.07;;
19879;SDS011;10102;50.828;4.416;2023-02-04T00:55:04;28.92;;;11.25;;
19879;SDS011;10102;50.828;4.416;2023-02-04T00:57:32;21.88;;;12.05;;
19879;SDS011;10102;50.828;4.416;2023-02-04T00:59:58;16.15;;;11.05;;
19879;SDS011;10102;50.828;4.416;2023-02-04T01:02:24;17.98;;;11.70;;
19879;SDS011;10102;50.828;4.416;2023-02-04T01:04:50;20.60;;;12.18;;
19879;SDS011;10102;50.828;4.416;2023-02-04T01:07:16;20.65;;;11.80;;
19879;SDS011;10102;50.828;4.416;2023-02-04T01:09:41;19.55;;;10.38;;
19879;SDS011;10102;50.828;4.416;2023-02-04T01:12:07;19.67;;;12.00;;
19879;SDS011;10102;50.828;4.416;2023-02-04T01:14:33;23.58;;;11.68;;
19879;SDS011;10102;50.828;4.416;2023-02-04T01:16:59;18.77;;;11.65;;
19879;SDS011;10102;50.828;4.416;2023-02-04T01:19:24;21.77;;;11.57;;
19879;SDS011;10102;50.828;4.416;2023-02-04T01:21:50;18.30;;;11.60;;
19879;SDS011;10102;50.828;4.416;2023-02-04T01:24:16;29.52;;;12.85;;
19879;SDS011;10102;50.828;4.416;2023-02-04T01:26:42;22.08;;;13.13;;
19879;SDS011;10102;50.828;4.416;2023-02-04T01:29:08;28.00;;;14.32;;
19879;SDS011;10102;50.828;4.416;2023-02-04T01:31:35;24.40;;;13.45;;
19879;SDS011;10102;50.828;4.416;2023-02-04T01:34:01;26.45;;;14.43;;
19879;SDS011;10102;50.828;4.416;2023-02-04T01:36:27;28.55;;;14.88;;
19879;SDS011;10102;50.828;4.416;2023-02-04T01:38:53;26.13;;;14.30;;
19879;SDS011;10102;50.828;4.416;2023-02-04T01:41:18;20.58;;;14.70;;
19879;SDS011;10102;50.828;4.416;2023-02-04T01:43:45;24.65;;;14.70;;
19879;SDS011;10102;50.828;4.416;2023-02-04T01:46:11;23.35;;;14.30;;
19879;SDS011;10102;50.828;4.416;2023-02-04T01:48:37;23.88;;;14.80;;
19879;SDS011;10102;50.828;4.416;2023-02-04T01:51:04;24.00;;;14.55;;
19879;SDS011;10102;50.828;4.416;2023-02-04T01:53:36;24.60;;;14.05;;
19879;SDS011;10102;50.828;4.416;2023-02-04T01:58:58;30.23;;;15.73;;
19879;SDS011;10102;50.828;4.416;2023-02-04T02:04:13;29.10;;;16.73;;
19879;SDS011;10102;50.828;4.416;2023-02-04T02:06:51;31.20;;;16.48;;
19879;SDS011;10102;50.828;4.416;2023-02-04T02:09:19;24.77;;;16.40;;
19879;SDS011;10102;50.828;4.416;2023-02-04T02:11:45;28.90;;;16.20;;
19879;SDS011;10102;50.828;4.416;2023-02-04T02:14:11;24.58;;;15.05;;
19879;SDS011;10102;50.828;4.416;2023-02-04T02:16:37;26.50;;;15.60;;
19879;SDS011;10102;50.828;4.416;2023-02-04T02:19:03;26.25;;;15.73;;
19879;SDS011;10102;50.828;4.416;2023-02-04T02:21:38;33.70;;;16.17;;
19879;SDS011;10102;50.828;4.416;2023-02-04T02:24:23;26.13;;;15.60;;
19879;SDS011;10102;50.828;4.416;2023-02-04T02:26:53;24.70;;;14.93;;
19879;SDS011;10102;50.828;4.416;2023-02-04T02:29:21;36.08;;;16.52;;
19879;SDS011;10102;50.828;4.416;2023-02-04T02:31:47;34.72;;;14.98;;
19879;SDS011;10102;50.828;4.416;2023-02-04T02:34:14;28.42;;;15.63;;
19879;SDS011;10102;50.828;4.416;2023-02-04T02:36:40;29.38;;;15.90;;
19879;SDS011;10102;50.828;4.416;2023-02-04T02:39:06;24.92;;;15.32;;
19879;SDS011;10102;50.828;4.416;2023-02-04T02:41:33;27.52;;;16.52;;
19879;SDS011;10102;50.828;4.416;2023-02-04T02:43:59;27.85;;;15.95;;
19879;SDS011;10102;50.828;4.416;2023-02-04T02:46:25;23.52;;;14.65;;
19879;SDS011;10102;50.828;4.416;2023-02-04T02:48:51;23.10;;;15.75;;
19879;SDS011;10102;50.828;4.416;2023-02-04T02:51:17;24.52;;;14.35;;
19879;SDS011;10102;50.828;4.416;2023-02-04T02:53:43;25.30;;;15.43;;
19879;SDS011;10102;50.828;4.416;2023-02-04T02:56:10;25.33;;;15.55;;
19879;SDS011;10102;50.828;4.416;2023-02-04T02:58:37;24.55;;;14.13;;
19879;SDS011;10102;50.828;4.416;2023-02-04T03:01:04;24.35;;;14.40;;
19879;SDS011;10102;50.828;4.416;2023-02-04T03:03:33;21.63;;;13.23;;
19879;SDS011;10102;50.828;4.416;2023-02-04T03:06:23;22.98;;;13.40;;
19879;SDS011;10102;50.828;4.416;2023-02-04T03:08:49;19.23;;;12.77;;
19879;SDS011;10102;50.828;4.416;2023-02-04T03:11:19;22.58;;;12.40;;
19879;SDS011;10102;50.828;4.416;2023-02-04T03:13:46;20.80;;;12.00;;
19879;SDS011;10102;50.828;4.416;2023-02-04T03:16:12;21.80;;;13.20;;
19879;SDS011;10102;50.828;4.416;2023-02-04T03:18:38;22.75;;;12.77;;
19879;SDS011;10102;50.828;4.416;2023-02-04T03:21:04;21.52;;;12.82;;
19879;SDS011;10102;50.828;4.416;2023-02-04T03:23:34;18.15;;;12.38;;
19879;SDS011;10102;50.828;4.416;2023-02-04T03:26:01;20.58;;;12.57;;
19879;SDS011;10102;50.828;4.416;2023-02-04T03:28:26;26.30;;;12.93;;
19879;SDS011;10102;50.828;4.416;2023-02-04T03:30:54;18.05;;;11.60;;
19879;SDS011;10102;50.828;4.416;2023-02-04T03:33:20;16.08;;;10.40;;
19879;SDS011;10102;50.828;4.416;2023-02-04T03:35:47;14.10;;;10.20;;
19879;SDS011;10102;50.828;4.416;2023-02-04T03:38:13;17.50;;;10.23;;
19879;SDS011;10102;50.828;4.416;2023-02-04T03:40:38;16.95;;;10.30;;
19879;SDS011;10102;50.828;4.416;2023-02-04T03:43:04;14.00;;;9.93;;
19879;SDS011;10102;50.828;4.416;2023-02-04T03:45:31;13.98;;;9.98;;
19879;SDS011;10102;50.828;4.416;2023-02-04T03:47:56;16.45;;;9.70;;
19879;SDS011;10102;50.828;4.416;2023-02-04T03:50:22;13.63;;;9.23;;
19879;SDS011;10102;50.828;4.416;2023-02-04T03:52:47;18.48;;;10.20;;
19879;SDS011;10102;50.828;4.416;2023-02-04T03:55:15;18.13;;;11.20;;
19879;SDS011;10102;50.828;4.416;2023-02-04T03:57:41;16.58;;;10.52;;
19879;SDS011;10102;50.828;4.416;2023-02-04T04:00:07;17.23;;;9.95;;
19879;SDS011;10102;50.828;4.416;2023-02-04T04:02:33;13.75;;;8.90;;
19879;SDS011;10102;50.828;4.416;2023-02-04T04:04:59;14.27;;;8.52;;
19879;SDS011;10102;50.828;4.416;2023-02-04T04:07:25;11.00;;;7.30;;
19879;SDS011;10102;50.828;4.416;2023-02-04T04:09:50;11.05;;;7.72;;
19879;SDS011;10102;50.828;4.416;2023-02-04T04:12:16;9.48;;;6.72;;
19879;SDS011;10102;50.828;4.416;2023-02-04T04:14:42;11.45;;;7.22;;
19879;SDS011;10102;50.828;4.416;2023-02-04T04:17:07;11.18;;;7.32;;
19879;SDS011;10102;50.828;4.416;2023-02-04T04:19:33;11.45;;;6.93;;
19879;SDS011;10102;50.828;4.416;2023-02-04T04:21:58;9.63;;;6.25;;
19879;SDS011;10102;50.828;4.416;2023-02-04T04:24:24;10.60;;;6.90;;
19879;SDS011;10102;50.828;4.416;2023-02-04T04:26:50;11.32;;;7.30;;
19879;SDS011;10102;50.828;4.416;2023-02-04T04:29:15;11.07;;;7.80;;
19879;SDS011;10102;50.828;4.416;2023-02-04T04:31:41;10.55;;;7.10;;
19879;SDS011;10102;50.828;4.416;2023-02-04T04:34:07;13.52;;;7.47;;
19879;SDS011;10102;50.828;4.416;2023-02-04T04:36:32;9.23;;;7.15;;
19879;SDS011;10102;50.828;4.416;2023-02-04T04:38:58;11.13;;;7.75;;
19879;SDS011;10102;50.828;4.416;2023-02-04T04:41:26;10.95;;;7.80;;
19879;SDS011;10102;50.828;4.416;2023-02-04T04:43:51;10.65;;;7.15;;
19879;SDS011;10102;50.828;4.416;2023-02-04T04:46:17;10.00;;;7.10;;
19879;SDS011;10102;50.828;4.416;2023-02-04T04:48:43;9.70;;;7.20;;
19879;SDS011;10102;50.828;4.416;2023-02-04T04:51:09;12.43;;;7.80;;
19879;SDS011;10102;50.828;4.416;2023-02-04T04:53:35;11.32;;;7.07;;
19879;SDS011;10102;50.828;4.416;2023-02-04T04:56:01;12.68;;;7.97;;
19879;SDS011;10102;50.828;4.416;2023-02-04T04:58:27;11.20;;;7.15;;
19879;SDS011;10102;50.828;4.416;2023-02-04T05:00:52;12.48;;;7.47;;
19879;SDS011;10102;50.828;4.416;2023-02-04T05:03:19;11.27;;;7.93;;
19879;SDS011;10102;50.828;4.416;2023-02-04T05:05:44;12.82;;;7.68;;
19879;SDS011;10102;50.828;4.416;2023-02-04T05:08:10;12.10;;;7.68;;
19879;SDS011;10102;50.828;4.416;2023-02-04T05:10:38;10.68;;;7.03;;
19879;SDS011;10102;50.828;4.416;2023-02-04T05:13:04;11.02;;;7.18;;
19879;SDS011;10102;50.828;4.416;2023-02-04T05:15:30;10.20;;;6.85;;
19879;SDS011;10102;50.828;4.416;2023-02-04T05:17:56;11.77;;;7.15;;
19879;SDS011;10102;50.828;4.416;2023-02-04T05:20:22;14.00;;;7.65;;
19879;SDS011;10102;50.828;4.416;2023-02-04T05:22:48;11.07;;;7.00;;
19879;SDS011;10102;50.828;4.416;2023-02-04T05:25:14;10.15;;;7.28;;
19879;SDS011;10102;50.828;4.416;2023-02-04T05:27:42;11.30;;;7.25;;
19879;SDS011;10102;50.828;4.416;2023-02-04T05:30:09;12.00;;;7.65;;
19879;SDS011;10102;50.828;4.416;2023-02-04T05:32:36;9.90;;;6.95;;
19879;SDS011;10102;50.828;4.416;2023-02-04T05:35:02;11.35;;;7.15;;
19879;SDS011;10102;50.828;4.416;2023-02-04T05:37:27;12.02;;;7.10;;
19879;SDS011;10102;50.828;4.416;2023-02-04T05:39:53;14.15;;;7.35;;
19879;SDS011;10102;50.828;4.416;2023-02-04T05:42:19;13.05;;;8.13;;
19879;SDS011;10102;50.828;4.416;2023-02-04T05:44:45;11.23;;;7.55;;
19879;SDS011;10102;50.828;4.416;2023-02-04T05:47:11;11.77;;;7.40;;
19879;SDS011;10102;50.828;4.416;2023-02-04T05:49:36;9.98;;;7.05;;
19879;SDS011;10102;50.828;4.416;2023-02-04T05:52:02;11.55;;;7.28;;
19879;SDS011;10102;50.828;4.416;2023-02-04T05:54:28;11.02;;;7.78;;
19879;SDS011;10102;50.828;4.416;2023-02-04T05:56:55;11.52;;;7.82;;
19879;SDS011;10102;50.828;4.416;2023-02-04T05:59:21;11.75;;;7.72;;
19879;SDS011;10102;50.828;4.416;2023-02-04T06:01:47;11.75;;;7.72;;
19879;SDS011;10102;50.828;4.416;2023-02-04T06:04:13;11.60;;;7.68;;
19879;SDS011;10102;50.828;4.416;2023-02-04T06:06:42;12.57;;;8.35;;
19879;SDS011;10102;50.828;4.416;2023-02-04T06:09:08;11.20;;;7.03;;
19879;SDS011;10102;50.828;4.416;2023-02-04T06:11:34;11.40;;;8.25;;
19879;SDS011;10102;50.828;4.416;2023-02-04T06:14:00;11.23;;;7.80;;
19879;SDS011;10102;50.828;4.416;2023-02-04T06:16:26;14.48;;;8.75;;
19879;SDS011;10102;50.828;4.416;2023-02-04T06:18:51;13.38;;;8.63;;
19879;SDS011;10102;50.828;4.416;2023-02-04T06:21:17;12.00;;;8.23;;
19879;SDS011;10102;50.828;4.416;2023-02-04T06:23:43;13.00;;;8.98;;
19879;SDS011;10102;50.828;4.416;2023-02-04T06:26:08;12.88;;;8.70;;
19879;SDS011;10102;50.828;4.416;2023-02-04T06:28:34;14.30;;;8.23;;
19879;SDS011;10102;50.828;4.416;2023-02-04T06:31:00;14.88;;;9.60;;
19879;SDS011;10102;50.828;4.416;2023-02-04T06:33:26;13.43;;;8.93;;
19879;SDS011;10102;50.828;4.416;2023-02-04T06:35:51;13.73;;;8.55;;
19879;SDS011;10102;50.828;4.416;2023-02-04T06:38:17;12.95;;;8.68;;
19879;SDS011;10102;50.828;4.416;2023-02-04T06:40:43;13.15;;;9.20;;
19879;SDS011;10102;50.828;4.416;2023-02-04T06:43:12;14.48;;;8.50;;
19879;SDS011;10102;50.828;4.416;2023-02-04T06:45:37;13.60;;;8.35;;
19879;SDS011;10102;50.828;4.416;2023-02-04T06:48:03;16.00;;;8.82;;
19879;SDS011;10102;50.828;4.416;2023-02-04T06:50:29;13.82;;;9.30;;
19879;SDS011;10102;50.828;4.416;2023-02-04T06:52:54;14.52;;;8.88;;
19879;SDS011;10102;50.828;4.416;2023-02-04T06:55:20;14.82;;;9.25;;
19879;SDS011;10102;50.828;4.416;2023-02-04T06:57:45;17.10;;;8.88;;
19879;SDS011;10102;50.828;4.416;2023-02-04T07:00:11;14.27;;;9.32;;
19879;SDS011;10102;50.828;4.416;2023-02-04T07:02:37;15.32;;;9.65;;
19879;SDS011;10102;50.828;4.416;2023-02-04T07:05:03;14.95;;;9.80;;
19879;SDS011;10102;50.828;4.416;2023-02-04T07:07:30;15.82;;;10.15;;
19879;SDS011;10102;50.828;4.416;2023-02-04T07:09:55;15.85;;;10.05;;
19879;SDS011;10102;50.828;4.416;2023-02-04T07:12:21;18.10;;;10.73;;
19879;SDS011;10102;50.828;4.416;2023-02-04T07:14:46;15.77;;;9.65;;
19879;SDS011;10102;50.828;4.416;2023-02-04T07:17:12;21.50;;;10.93;;
19879;SDS011;10102;50.828;4.416;2023-02-04T07:19:38;15.73;;;10.05;;
19879;SDS011;10102;50.828;4.416;2023-02-04T07:22:04;18.60;;;10.65;;
19879;SDS011;10102;50.828;4.416;2023-02-04T07:24:29;15.00;;;9.30;;
19879;SDS011;10102;50.828;4.416;2023-02-04T07:26:56;15.15;;;9.73;;
19879;SDS011;10102;50.828;4.416;2023-02-04T07:29:22;13.80;;;9.25;;
19879;SDS011;10102;50.828;4.416;2023-02-04T07:31:47;17.15;;;9.27;;
19879;SDS011;10102;50.828;4.416;2023-02-04T07:34:15;15.90;;;9.60;;
19879;SDS011;10102;50.828;4.416;2023-02-04T07:36:41;15.48;;;10.07;;
19879;SDS011;10102;50.828;4.416;2023-02-04T07:39:07;15.85;;;9.85;;
19879;SDS011;10102;50.828;4.416;2023-02-04T07:41:33;15.30;;;9.75;;
19879;SDS011;10102;50.828;4.416;2023-02-04T07:44:01;16.08;;;9.73;;
19879;SDS011;10102;50.828;4.416;2023-02-04T07:46:28;18.05;;;10.95;;
19879;SDS011;10102;50.828;4.416;2023-02-04T07:48:54;15.75;;;9.65;;
19879;SDS011;10102;50.828;4.416;2023-02-04T07:51:22;13.35;;;8.32;;
19879;SDS011;10102;50.828;4.416;2023-02-04T07:53:47;12.05;;;8.02;;
19879;SDS011;10102;50.828;4.416;2023-02-04T07:56:14;13.48;;;8.40;;
19879;SDS011;10102;50.828;4.416;2023-02-04T07:58:39;12.65;;;7.45;;
19879;SDS011;10102;50.828;4.416;2023-02-04T08:01:05;12.30;;;7.75;;
19879;SDS011;10102;50.828;4.416;2023-02-04T08:03:32;11.43;;;7.97;;
19879;SDS011;10102;50.828;4.416;2023-02-04T08:05:59;15.02;;;9.07;;
19879;SDS011;10102;50.828;4.416;2023-02-04T08:08:24;11.25;;;7.38;;
19879;SDS011;10102;50.828;4.416;2023-02-04T08:10:50;12.23;;;7.45;;
19879;SDS011;10102;50.828;4.416;2023-02-04T08:13:15;12.10;;;7.97;;
19879;SDS011;10102;50.828;4.416;2023-02-04T08:15:41;11.77;;;7.88;;
19879;SDS011;10102;50.828;4.416;2023-02-04T08:18:07;11.88;;;7.95;;
19879;SDS011;10102;50.828;4.416;2023-02-04T08:20:32;11.65;;;7.28;;
19879;SDS011;10102;50.828;4.416;2023-02-04T08:22:58;9.80;;;6.43;;
19879;SDS011;10102;50.828;4.416;2023-02-04T08:25:24;8.30;;;6.22;;
19879;SDS011;10102;50.828;4.416;2023-02-04T08:27:50;9.15;;;5.95;;
19879;SDS011;10102;50.828;4.416;2023-02-04T08:30:16;7.80;;;6.25;;
19879;SDS011;10102;50.828;4.416;2023-02-04T08:32:42;9.77;;;6.40;;
19879;SDS011;10102;50.828;4.416;2023-02-04T08:35:07;9.88;;;6.07;;
19879;SDS011;10102;50.828;4.416;2023-02-04T08:37:35;9.88;;;5.78;;
19879;SDS011;10102;50.828;4.416;2023-02-04T08:40:01;9.52;;;4.95;;
19879;SDS011;10102;50.828;4.416;2023-02-04T08:42:27;6.28;;;4.38;;
19879;SDS011;10102;50.828;4.416;2023-02-04T08:44:53;8.25;;;5.28;;
19879;SDS011;10102;50.828;4.416;2023-02-04T08:47:19;9.23;;;4.75;;
19879;SDS011;10102;50.828;4.416;2023-02-04T08:49:46;8.38;;;5.10;;
19879;SDS011;10102;50.828;4.416;2023-02-04T08:52:13;9.43;;;6.07;;
19879;SDS011;10102;50.828;4.416;2023-02-04T08:54:39;7.93;;;5.57;;
19879;SDS011;10102;50.828;4.416;2023-02-04T08:57:04;7.95;;;5.50;;
19879;SDS011;10102;50.828;4.416;2023-02-04T08:59:30;8.65;;;6.00;;
19879;SDS011;10102;50.828;4.416;2023-02-04T09:01:55;8.40;;;5.15;;
19879;SDS011;10102;50.828;4.416;2023-02-04T09:04:22;7.95;;;5.18;;
19879;SDS011;10102;50.828;4.416;2023-02-04T09:06:50;6.68;;;4.45;;
19879;SDS011;10102;50.828;4.416;2023-02-04T09:09:16;7.15;;;4.20;;
19879;SDS011;10102;50.828;4.416;2023-02-04T09:11:42;6.03;;;4.55;;
19879;SDS011;10102;50.828;4.416;2023-02-04T09:14:08;5.85;;;4.40;;
19879;SDS011;10102;50.828;4.416;2023-02-04T09:16:33;6.68;;;4.40;;
19879;SDS011;10102;50.828;4.416;2023-02-04T09:18:59;7.78;;;4.70;;
19879;SDS011;10102;50.828;4.416;2023-02-04T09:21:26;5.68;;;3.67;;
19879;SDS011;10102;50.828;4.416;2023-02-04T09:23:52;5.28;;;3.35;;
19879;SDS011;10102;50.828;4.416;2023-02-04T09:26:18;5.05;;;3.38;;
19879;SDS011;10102;50.828;4.416;2023-02-04T09:28:44;4.35;;;3.00;;
19879;SDS011;10102;50.828;4.416;2023-02-04T09:31:11;3.15;;;2.38;;
19879;SDS011;10102;50.828;4.416;2023-02-04T09:33:37;2.67;;;2.30;;
19879;SDS011;10102;50.828;4.416;2023-02-04T09:36:03;2.45;;;2.20;;
19879;SDS011;10102;50.828;4.416;2023-02-04T09:38:29;2.90;;;2.30;;
19879;SDS011;10102;50.828;4.416;2023-02-04T09:41:02;4.40;;;2.63;;
19879;SDS011;10102;50.828;4.416;2023-02-04T09:43:33;4.85;;;2.30;;
19879;SDS011;10102;50.828;4.416;2023-02-04T09:46:02;4.30;;;2.00;;
19879;SDS011;10102;50.828;4.416;2023-02-04T09:48:28;4.43;;;2.10;;
19879;SDS011;10102;50.828;4.416;2023-02-04T09:50:59;6.35;;;2.30;;
19879;SDS011;10102;50.828;4.416;2023-02-04T09:53:29;4.78;;;1.80;;
19879;SDS011;10102;50.828;4.416;2023-02-04T09:55:55;4.47;;;2.00;;
19879;SDS011;10102;50.828;4.416;2023-02-04T09:58:21;5.18;;;2.10;;
19879;SDS011;10102;50.828;4.416;2023-02-04T10:00:58;4.57;;;1.98;;
19879;SDS011;10102;50.828;4.416;2023-02-04T10:03:32;4.60;;;2.17;;
19879;SDS011;10102;50.828;4.416;2023-02-04T10:05:59;3.63;;;2.22;;
19879;SDS011;10102;50.828;4.416;2023-02-04T10:08:27;5.75;;;2.70;;
19879;SDS011;10102;50.828;4.416;2023-02-04T10:10:55;4.07;;;2.25;;
19879;SDS011;10102;50.828;4.416;2023-02-04T10:13:30;3.33;;;2.30;;
19879;SDS011;10102;50.828;4.416;2023-02-04T10:15:58;5.05;;;2.60;;
19879;SDS011;10102;50.828;4.416;2023-02-04T10:18:29;6.30;;;3.17;;
19879;SDS011;10102;50.828;4.416;2023-02-04T10:21:18;4.38;;;2.40;;
19879;SDS011;10102;50.828;4.416;2023-02-04T10:23:47;4.13;;;2.42;;
19879;SDS011;10102;50.828;4.416;2023-02-04T10:26:15;3.08;;;2.03;;
19879;SDS011;10102;50.828;4.416;2023-02-04T10:28:42;3.70;;;3.40;;
19879;SDS011;10102;50.828;4.416;2023-02-04T10:34:01;2.50;;;2.10;;
19879;SDS011;10102;50.828;4.416;2023-02-04T10:36:31;3.10;;;2.08;;
19879;SDS011;10102;50.828;4.416;2023-02-04T10:39:00;2.10;;;1.90;;
19879;SDS011;10102;50.828;4.416;2023-02-04T10:41:27;4.13;;;2.30;;
19879;SDS011;10102;50.828;4.416;2023-02-04T10:44:03;4.25;;;2.50;;
19879;SDS011;10102;50.828;4.416;2023-02-04T10:46:30;3.75;;;2.70;;
19879;SDS011;10102;50.828;4.416;2023-02-04T10:49:18;3.30;;;2.30;;
19879;SDS011;10102;50.828;4.416;2023-02-04T10:51:46;3.85;;;2.90;;
19879;SDS011;10102;50.828;4.416;2023-02-04T10:54:13;7.95;;;3.63;;
19879;SDS011;10102;50.828;4.416;2023-02-04T10:59:38;5.18;;;3.03;;
19879;SDS011;10102;50.828;4.416;2023-02-04T11:02:24;6.60;;;3.53;;
19879;SDS011;10102;50.828;4.416;2023-02-04T11:07:43;5.25;;;3.90;;
19879;SDS011;10102;50.828;4.416;2023-02-04T11:10:14;4.80;;;4.10;;
19879;SDS011;10102;50.828;4.416;2023-02-04T11:12:44;5.15;;;4.47;;
19879;SDS011;10102;50.828;4.416;2023-02-04T11:20:49;7.13;;;5.32;;
19879;SDS011;10102;50.828;4.416;2023-02-04T11:26:13;5.13;;;4.28;;
19879;SDS011;10102;50.828;4.416;2023-02-04T11:28:47;6.50;;;4.70;;
19879;SDS011;10102;50.828;4.416;2023-02-04T11:36:55;5.20;;;3.65;;
19879;SDS011;10102;50.828;4.416;2023-02-04T11:39:43;4.35;;;3.85;;
19879;SDS011;10102;50.828;4.416;2023-02-04T11:42:18;4.55;;;4.05;;
19879;SDS011;10102;50.828;4.416;2023-02-04T11:44:51;7.38;;;4.82;;
19879;SDS011;10102;50.828;4.416;2023-02-04T11:47:19;8.55;;;5.10;;
19879;SDS011;10102;50.828;4.416;2023-02-04T11:49:51;6.68;;;5.05;;
19879;SDS011;10102;50.828;4.416;2023-02-04T11:52:19;8.15;;;5.95;;
19879;SDS011;10102;50.828;4.416;2023-02-04T11:54:52;8.57;;;5.78;;
19879;SDS011;10102;50.828;4.416;2023-02-04T11:57:19;8.07;;;5.90;;
19879;SDS011;10102;50.828;4.416;2023-02-04T11:59:45;8.82;;;5.22;;
19879;SDS011;10102;50.828;4.416;2023-02-04T12:02:18;8.68;;;6.68;;
19879;SDS011;10102;50.828;4.416;2023-02-04T12:05:11;8.65;;;5.55;;
19879;SDS011;10102;50.828;4.416;2023-02-04T12:07:40;8.95;;;5.88;;
19879;SDS011;10102;50.828;4.416;2023-02-04T12:10:24;7.22;;;5.47;;
19879;SDS011;10102;50.828;4.416;2023-02-04T12:12:52;7.10;;;5.57;;
19879;SDS011;10102;50.828;4.416;2023-02-04T12:15:22;12.68;;;6.32;;
19879;SDS011;10102;50.828;4.416;2023-02-04T12:17:59;6.95;;;5.22;;
19879;SDS011;10102;50.828;4.416;2023-02-04T12:20:29;6.32;;;5.15;;
19879;SDS011;10102;50.828;4.416;2023-02-04T12:22:55;8.60;;;5.20;;
19879;SDS011;10102;50.828;4.416;2023-02-04T12:25:21;7.75;;;5.70;;
19879;SDS011;10102;50.828;4.416;2023-02-04T12:27:47;10.13;;;5.60;;
19879;SDS011;10102;50.828;4.416;2023-02-04T12:30:13;7.78;;;6.15;;
19879;SDS011;10102;50.828;4.416;2023-02-04T12:32:39;13.55;;;6.65;;
19879;SDS011;10102;50.828;4.416;2023-02-04T12:35:04;11.15;;;7.03;;
19879;SDS011;10102;50.828;4.416;2023-02-04T12:37:30;11.48;;;7.35;;
19879;SDS011;10102;50.828;4.416;2023-02-04T12:39:56;11.85;;;6.93;;
19879;SDS011;10102;50.828;4.416;2023-02-04T12:42:23;12.43;;;6.93;;
19879;SDS011;10102;50.828;4.416;2023-02-04T12:44:48;11.88;;;6.95;;
19879;SDS011;10102;50.828;4.416;2023-02-04T12:47:14;11.95;;;6.85;;
19879;SDS011;10102;50.828;4.416;2023-02-04T12:49:39;15.80;;;6.80;;
19879;SDS011;10102;50.828;4.416;2023-02-04T12:52:05;13.77;;;7.10;;
19879;SDS011;10102;50.828;4.416;2023-02-04T12:54:31;13.90;;;7.53;;
19879;SDS011;10102;50.828;4.416;2023-02-04T12:56:56;13.73;;;7.43;;
19879;SDS011;10102;50.828;4.416;2023-02-04T12:59:23;17.38;;;7.35;;
19879;SDS011;10102;50.828;4.416;2023-02-04T13:01:49;9.43;;;6.45;;
19879;SDS011;10102;50.828;4.416;2023-02-04T13:04:15;14.20;;;7.30;;
19879;SDS011;10102;50.828;4.416;2023-02-04T13:06:41;14.25;;;7.57;;
19879;SDS011;10102;50.828;4.416;2023-02-04T13:09:07;12.98;;;7.25;;
19879;SDS011;10102;50.828;4.416;2023-02-04T13:11:32;13.52;;;7.07;;
19879;SDS011;10102;50.828;4.416;2023-02-04T13:13:58;11.52;;;7.03;;
19879;SDS011;10102;50.828;4.416;2023-02-04T13:16:23;14.98;;;7.18;;
19879;SDS011;10102;50.828;4.416;2023-02-04T13:18:50;12.25;;;7.68;;
19879;SDS011;10102;50.828;4.416;2023-02-04T13:21:16;11.10;;;7.70;;
19879;SDS011;10102;50.828;4.416;2023-02-04T13:23:42;13.65;;;7.75;;
19879;SDS011;10102;50.828;4.416;2023-02-04T13:26:09;13.25;;;7.55;;
19879;SDS011;10102;50.828;4.416;2023-02-04T13:28:35;18.75;;;8.27;;
19879;SDS011;10102;50.828;4.416;2023-02-04T13:31:01;12.38;;;7.75;;
19879;SDS011;10102;50.828;4.416;2023-02-04T13:33:26;18.58;;;8.50;;
19879;SDS011;10102;50.828;4.416;2023-02-04T13:35:52;15.88;;;8.07;;
19879;SDS011;10102;50.828;4.416;2023-02-04T13:38:18;11.68;;;8.15;;
19879;SDS011;10102;50.828;4.416;2023-02-04T13:40:43;13.50;;;8.48;;
19879;SDS011;10102;50.828;4.416;2023-02-04T13:43:09;18.50;;;8.70;;
19879;SDS011;10102;50.828;4.416;2023-02-04T13:45:34;17.65;;;9.02;;
19879;SDS011;10102;50.828;4.416;2023-02-04T13:48:00;14.65;;;9.13;;
19879;SDS011;10102;50.828;4.416;2023-02-04T13:50:26;15.80;;;8.65;;
19879;SDS011;10102;50.828;4.416;2023-02-04T13:52:52;17.52;;;9.15;;
19879;SDS011;10102;50.828;4.416;2023-02-04T13:55:19;13.43;;;8.68;;
19879;SDS011;10102;50.828;4.416;2023-02-04T13:57:45;19.02;;;9.32;;
19879;SDS011;10102;50.828;4.416;2023-02-04T14:00:11;16.95;;;9.27;;
19879;SDS011;10102;50.828;4.416;2023-02-04T14:02:37;14.27;;;9.10;;
19879;SDS011;10102;50.828;4.416;2023-02-04T14:05:02;19.20;;;9.68;;
19879;SDS011;10102;50.828;4.416;2023-02-04T14:07:28;16.08;;;10.10;;
19879;SDS011;10102;50.828;4.416;2023-02-04T14:09:54;20.63;;;11.00;;
19879;SDS011;10102;50.828;4.416;2023-02-04T14:12:20;22.42;;;10.32;;
19879;SDS011;10102;50.828;4.416;2023-02-04T14:14:46;17.40;;;10.57;;
19879;SDS011;10102;50.828;4.416;2023-02-04T14:17:11;25.15;;;10.73;;
19879;SDS011;10102;50.828;4.416;2023-02-04T14:19:37;20.63;;;11.63;;
19879;SDS011;10102;50.828;4.416;2023-02-04T14:22:03;21.70;;;14.52;;
19879;SDS011;10102;50.828;4.416;2023-02-04T14:24:28;23.10;;;13.93;;
19879;SDS011;10102;50.828;4.416;2023-02-04T14:26:54;19.83;;;12.70;;
19879;SDS011;10102;50.828;4.416;2023-02-04T14:29:20;17.80;;;11.75;;
19879;SDS011;10102;50.828;4.416;2023-02-04T14:31:46;22.73;;;12.25;;
19879;SDS011;10102;50.828;4.416;2023-02-04T14:34:11;21.55;;;12.00;;
19879;SDS011;10102;50.828;4.416;2023-02-04T14:36:37;20.85;;;12.15;;
19879;SDS011;10102;50.828;4.416;2023-02-04T14:39:03;18.90;;;11.60;;
19879;SDS011;10102;50.828;4.416;2023-02-04T14:41:28;22.80;;;12.57;;
19879;SDS011;10102;50.828;4.416;2023-02-04T14:43:55;24.20;;;12.45;;
19879;SDS011;10102;50.828;4.416;2023-02-04T14:46:21;24.88;;;12.57;;
19879;SDS011;10102;50.828;4.416;2023-02-04T14:48:47;22.67;;;12.52;;
19879;SDS011;10102;50.828;4.416;2023-02-04T14:51:15;27.10;;;13.93;;
19879;SDS011;10102;50.828;4.416;2023-02-04T14:53:41;28.73;;;13.52;;
19879;SDS011;10102;50.828;4.416;2023-02-04T14:56:07;27.10;;;17.05;;
19879;SDS011;10102;50.828;4.416;2023-02-04T14:58:33;34.50;;;19.45;;
19879;SDS011;10102;50.828;4.416;2023-02-04T15:00:58;34.80;;;19.77;;